Time;durP1;ratioP1;P1;durP2;ratioP2;P2;SDS_P1;SDS_P2;PMS_P1;PMS_P2;Temp;Humidity;BMP_temperature;BMP_pressure;BME280_temperature;BME280_humidity;BME280_pressure;Samples;Min_cycle;Max_cycle;Signal;HPM_P1;HPM_P2
2024/01/04 00:00:03;;;;;;;3.58;0.50;;;;;;;5.88;100.00;99260.31;7397943;19;19950;-70
2024/01/04 00:02:35;;;;;;;2.78;0.25;;;;;;;5.82;100.00;99262.91;7394321;19;19918;-71
2024/01/04 00:05:05;;;;;;;5.65;0.75;;;;;;;5.71;100.00;99263.34;7396420;19;19954;-70
2024/01/04 00:07:33;;;;;;;4.35;0.50;;;;;;;5.68;100.00;99282.44;7395098;19;19926;-70
2024/01/04 00:10:02;;;;;;;2.42;0.50;;;;;;;5.67;100.00;99270.91;7393163;19;19926;-70
2024/01/04 00:12:52;;;;;;;7.22;0.60;;;;;;;5.68;100.00;99291.28;7386350;19;19922;-71
2024/01/04 00:15:21;;;;;;;3.53;0.43;;;;;;;5.69;100.00;99278.75;7394532;19;19933;-70
2024/01/04 00:18:12;;;;;;;1.40;0.47;;;;;;;5.70;100.00;99277.72;7390723;19;19927;-70
2024/01/04 00:20:40;;;;;;;2.80;0.55;;;;;;;5.73;100.00;99288.06;7394887;19;19923;-70
2024/01/04 00:23:09;;;;;;;2.53;0.30;;;;;;;5.76;100.00;99288.50;7394910;19;20347;-70
2024/01/04 00:25:38;;;;;;;3.38;1.00;;;;;;;5.75;100.00;99297.53;7397142;19;19919;-70
2024/01/04 00:28:07;;;;;;;2.53;0.75;;;;;;;5.78;100.00;99299.81;7393262;19;19929;-70
2024/01/04 00:30:36;;;;;;;4.22;0.57;;;;;;;5.76;100.00;99288.50;7394986;19;19942;-71
2024/01/04 00:33:05;;;;;;;4.03;0.57;;;;;;;5.77;100.00;99310.72;7395169;19;20474;-71
2024/01/04 00:35:36;;;;;;;2.72;0.70;;;;;;;5.75;99.09;99320.75;7395254;19;19957;-70
2024/01/04 00:38:04;;;;;;;4.82;0.35;;;;;;;5.75;98.49;99312.72;7397028;19;19934;-70
2024/01/04 00:40:35;;;;;;;4.72;0.73;;;;;;;5.77;98.34;99321.41;7394908;19;19918;-71
2024/01/04 00:43:04;;;;;;;1.92;0.30;;;;;;;5.74;97.10;99333.25;7397758;19;19946;-70
2024/01/04 00:45:32;;;;;;;1.13;0.20;;;;;;;5.78;97.61;99341.78;7397129;19;19923;-70
2024/01/04 00:48:02;;;;;;;0.93;0.10;;;;;;;5.78;96.08;99325.75;7396557;19;20186;-70
2024/01/04 00:50:30;;;;;;;2.10;0.50;;;;;;;5.78;95.69;99333.75;7394706;19;19919;-71
2024/01/04 00:53:02;;;;;;;3.38;0.43;;;;;;;5.79;95.60;99338.06;7397388;19;20276;-71
2024/01/04 00:55:31;;;;;;;1.63;0.20;;;;;;;5.77;94.88;99356.97;7394063;19;19925;-71
2024/01/04 00:58:02;;;;;;;1.40;0.20;;;;;;;5.72;94.44;99361.19;7394594;19;19923;-70
2024/01/04 01:00:51;;;;;;;5.57;0.63;;;;;;;5.65;94.51;99361.06;7394002;19;19929;-70
2024/01/04 01:03:19;;;;;;;0.77;0.38;;;;;;;5.61;93.86;99359.78;7396193;19;19919;-70
2024/01/04 01:05:48;;;;;;;1.48;0.28;;;;;;;5.56;93.30;99380.91;7395281;19;19922;-71
2024/01/04 01:08:19;;;;;;;0.75;0.40;;;;;;;5.58;93.61;99383.38;7393626;19;19930;-71
2024/01/04 01:10:47;;;;;;;2.53;0.50;;;;;;;5.56;93.38;99388.91;7396042;19;19929;-70
2024/01/04 01:13:20;;;;;;;2.45;0.30;;;;;;;5.60;93.86;99384.03;7391962;19;20284;-70
2024/01/04 01:15:48;;;;;;;2.70;0.35;;;;;;;5.60;93.31;99402.72;7393291;19;19953;-70
2024/01/04 01:18:17;;;;;;;0.75;0.28;;;;;;;5.61;93.52;99393.72;7394332;19;19922;-70
2024/01/04 01:20:46;;;;;;;0.70;0.40;;;;;;;5.61;93.65;99399.84;7394386;19;20260;-70
2024/01/04 01:23:14;;;;;;;1.60;0.35;;;;;;;5.63;93.58;99416.53;7394872;19;19922;-71
2024/01/04 01:25:46;;;;;;;4.70;0.47;;;;;;;5.62;92.37;99406.88;7396399;19;19942;-70
2024/01/04 01:28:34;;;;;;;1.05;0.20;;;;;;;5.61;92.01;99420.41;7394251;19;19925;-70
2024/01/04 01:31:01;;;;;;;0.35;0.10;;;;;;;5.62;92.46;99419.38;7392984;19;19954;-70
2024/01/04 01:33:29;;;;;;;;;;;;;;;5.52;90.32;99432.19;7395613;19;20426;-70
2024/01/04 01:35:57;;;;;;;1.35;0.50;;;;;;;5.57;91.54;99443.97;7393291;19;19923;-70
2024/01/04 01:38:26;;;;;;;1.08;0.50;;;;;;;5.57;91.95;99437.78;7393355;19;19918;-71
2024/01/04 01:40:57;;;;;;;1.58;0.30;;;;;;;5.55;91.49;99435.31;7394387;19;19925;-70
2024/01/04 01:43:26;;;;;;;2.25;0.35;;;;;;;5.57;91.65;99443.13;7394953;19;19993;-70
2024/01/04 01:45:55;;;;;;;1.10;0.40;;;;;;;5.52;91.57;99448.22;7392921;19;20494;-70
2024/01/04 01:48:23;;;;;;;2.70;0.25;;;;;;;5.52;92.21;99456.22;7395499;19;19932;-70
2024/01/04 01:50:52;;;;;;;0.73;0.20;;;;;;;5.44;92.38;99465.94;7394693;19;19949;-70
2024/01/04 01:53:21;;;;;;;1.42;0.60;;;;;;;5.36;93.34;99474.00;7392245;19;19922;-70
2024/01/04 01:55:50;;;;;;;2.38;0.30;;;;;;;5.28;94.42;99484.75;7393079;19;19915;-70
2024/01/04 01:58:22;;;;;;;0.70;0.22;;;;;;;5.21;94.54;99486.47;7393827;19;20553;-70
2024/01/04 02:00:51;;;;;;;0.30;0.10;;;;;;;5.22;94.41;99490.78;7387265;19;19930;-70
2024/01/04 02:03:20;;;;;;;3.10;0.40;;;;;;;5.20;94.38;99495.50;7392865;19;19937;-70
2024/01/04 02:05:48;;;;;;;0.73;0.25;;;;;;;5.20;94.88;99500.00;7395860;19;19919;-70
2024/01/04 02:08:17;;;;;;;1.30;0.20;;;;;;;5.20;95.83;99506.16;7393171;19;20403;-70
2024/01/04 02:11:06;;;;;;;3.05;0.70;;;;;;;5.20;95.85;99508.84;7391747;19;19923;-71
2024/01/04 02:13:37;;;;;;;2.95;0.40;;;;;;;5.16;95.75;99504.03;7391362;19;19951;-70
2024/01/04 02:16:06;;;;;;;0.52;0.20;;;;;;;5.11;95.52;99515.22;7394769;19;19954;-70
2024/01/04 02:18:37;;;;;;;0.35;0.20;;;;;;;5.03;95.33;99518.78;7385723;19;20399;-70
2024/01/04 02:21:06;;;;;;;0.80;0.30;;;;;;;5.00;95.19;99536.97;7393077;19;19923;-70
2024/01/04 02:23:37;;;;;;;2.33;0.45;;;;;;;4.95;94.89;99556.19;7394039;19;19960;-70
2024/01/04 02:26:06;;;;;;;4.13;0.52;;;;;;;4.93;94.70;99547.50;7384214;19;19918;-70
2024/01/04 02:28:34;;;;;;;4.10;0.47;;;;;;;4.93;94.94;99558.16;7395328;19;19950;-70
2024/01/04 02:31:03;;;;;;;0.10;0.10;;;;;;;4.83;94.89;99567.41;7392181;19;19939;-70
2024/01/04 02:33:32;;;;;;;0.63;0.50;;;;;;;4.80;95.83;99555.22;7393130;19;19968;-69
2024/01/04 02:36:00;;;;;;;0.93;0.20;;;;;;;4.74;95.59;99557.75;7386612;19;20351;-71
2024/01/04 02:38:51;;;;;;;2.33;0.30;;;;;;;4.70;95.97;99556.44;7392724;19;19938;-70
2024/01/04 02:41:20;;;;;;;0.65;0.20;;;;;;;4.68;96.24;99569.09;7393910;19;19926;-70
2024/01/04 02:43:48;;;;;;;0.17;0.10;;;;;;;4.68;96.17;99580.59;7389033;19;19929;-70
2024/01/04 02:46:17;;;;;;;0.82;0.20;;;;;;;4.68;96.44;99572.59;7392773;19;19934;-70
2024/01/04 02:48:46;;;;;;;1.88;0.30;;;;;;;4.63;97.23;99585.63;7392029;19;19947;-70
2024/01/04 02:51:14;;;;;;;1.90;0.20;;;;;;;4.61;99.10;99589.47;7392586;19;19965;-70
2024/01/04 02:53:43;;;;;;;4.13;0.45;;;;;;;4.54;99.43;99598.13;7380778;19;19922;-70
2024/01/04 02:56:15;;;;;;;3.25;0.57;;;;;;;4.55;99.77;99612.31;7386237;19;19919;-70
2024/01/04 02:58:45;;;;;;;3.25;0.82;;;;;;;4.56;100.00;99603.31;7392100;19;19956;-70
2024/01/04 03:01:13;;;;;;;5.72;2.00;;;;;;;4.55;100.00;99612.31;7389780;19;20300;-70
2024/01/04 03:03:42;;;;;;;6.68;1.75;;;;;;;4.55;100.00;99618.47;7388555;19;19942;-70
2024/01/04 03:06:10;;;;;;;4.05;0.80;;;;;;;4.55;100.00;99615.81;7390324;19;19922;-70
2024/01/04 03:08:40;;;;;;;6.63;1.52;;;;;;;4.58;100.00;99628.78;7389535;19;20252;-70
2024/01/04 03:11:09;;;;;;;4.05;0.80;;;;;;;4.57;100.00;99621.78;7390606;19;19933;-70
2024/01/04 03:13:40;;;;;;;4.03;0.80;;;;;;;4.55;100.00;99629.16;7384522;19;19934;-70
2024/01/04 03:16:09;;;;;;;2.58;0.98;;;;;;;4.56;100.00;99635.31;7389262;19;20287;-70
2024/01/04 03:18:37;;;;;;;1.13;0.40;;;;;;;4.56;100.00;99653.97;7391210;19;19919;-70
2024/01/04 03:21:26;;;;;;;1.48;0.22;;;;;;;4.51;100.00;99642.97;7391020;19;19932;-70
2024/01/04 03:23:54;;;;;;;3.40;0.57;;;;;;;4.47;100.00;99639.00;7391450;19;19954;-70
2024/01/04 03:26:23;;;;;;;0.85;0.30;;;;;;;4.45;100.00;99643.63;7388552;19;19932;-69
2024/01/04 03:28:54;;;;;;;2.25;0.38;;;;;;;4.45;100.00;99646.31;7391444;19;19918;-70
2024/01/04 03:31:23;;;;;;;1.00;0.22;;;;;;;4.45;100.00;99649.81;7383564;19;19923;-70
2024/01/04 03:33:51;;;;;;;1.08;0.10;;;;;;;4.46;100.00;99662.16;7389623;19;20348;-70
2024/01/04 03:36:20;;;;;;;3.50;0.50;;;;;;;4.46;100.00;99654.16;7393718;19;19923;-70
2024/01/04 03:38:50;;;;;;;2.42;0.40;;;;;;;4.42;100.00;99668.81;7397109;19;19971;-70
2024/01/04 03:41:18;;;;;;;2.15;0.28;;;;;;;4.42;99.56;99675.97;7397086;19;19954;-70
2024/01/04 03:43:47;;;;;;;5.30;0.30;;;;;;;4.42;99.71;99673.31;7397230;19;19915;-70
2024/01/04 03:46:18;;;;;;;0.93;0.20;;;;;;;4.41;99.55;99690.31;7396508;19;19922;-70
2024/01/04 03:48:47;;;;;;;1.45;0.50;;;;;;;4.41;99.67;99692.97;7391804;19;19943;-70
2024/01/04 03:51:15;;;;;;;3.20;0.40;;;;;;;4.44;99.64;99692.66;7392558;19;19926;-70
2024/01/04 03:53:44;;;;;;;1.58;0.32;;;;;;;4.45;99.43;99700.47;7397446;19;19922;-70
2024/01/04 03:56:13;;;;;;;4.53;0.30;;;;;;;4.48;99.87;99692.16;7393238;19;20316;-70
2024/01/04 03:59:02;;;;;;;1.08;0.30;;;;;;;4.50;99.99;99711.47;7394343;19;19919;-70
2024/01/04 04:01:33;;;;;;;1.90;0.20;;;;;;;4.50;99.67;99707.97;7398502;19;20384;-70
2024/01/04 04:04:21;;;;;;;0.80;0.20;;;;;;;4.48;99.49;99713.50;7395568;19;19927;-70
2024/01/04 04:06:50;;;;;;;0.57;0.20;;;;;;;4.44;99.16;99728.13;7388996;19;19926;-70
2024/01/04 04:09:18;;;;;;;1.65;0.30;;;;;;;4.42;99.23;99726.66;7393812;19;20364;-70
2024/01/04 04:11:49;;;;;;;0.50;0.20;;;;;;;4.37;99.86;99721.81;7396501;19;19919;-70
2024/01/04 04:14:17;;;;;;;1.60;0.35;;;;;;;4.37;99.57;99734.31;7397495;19;19930;-71
2024/01/04 04:16:48;;;;;;;2.47;0.40;;;;;;;4.35;99.61;99733.66;7397914;19;19919;-70
2024/01/04 04:19:18;;;;;;;0.52;0.20;;;;;;;4.36;99.51;99748.63;7397445;19;20273;-70
2024/01/04 04:21:46;;;;;;;1.17;0.40;;;;;;;4.30;99.21;99752.81;7397965;19;20297;-70
2024/01/04 04:24:15;;;;;;;0.70;0.30;;;;;;;4.27;98.59;99752.31;7389398;19;19918;-70
2024/01/04 04:26:45;;;;;;;4.57;0.30;;;;;;;4.25;98.36;99755.13;7392147;19;19979;-70
2024/01/04 04:29:13;;;;;;;3.60;0.20;;;;;;;4.24;98.83;99757.94;7395886;19;20268;-70
2024/01/04 04:31:42;;;;;;;0.30;0.20;;;;;;;4.22;99.29;99771.44;7395900;19;19942;-70
2024/01/04 04:34:11;;;;;;;0.20;0.10;;;;;;;4.19;99.10;99770.91;7395256;19;19923;-70
2024/01/04 04:36:40;;;;;;;3.58;0.20;;;;;;;4.18;99.43;99775.44;7397516;19;19947;-70
2024/01/04 04:39:09;;;;;;;1.75;0.30;;;;;;;4.17;99.10;99784.44;7396065;19;19923;-70
2024/01/04 04:41:37;;;;;;;0.95;0.40;;;;;;;4.16;98.99;99788.09;7388821;19;20281;-70
2024/01/04 04:44:06;;;;;;;0.10;0.10;;;;;;;4.13;98.80;99791.06;7390373;19;19923;-70
2024/01/04 04:46:35;;;;;;;4.03;0.30;;;;;;;4.15;98.98;99807.72;7397262;19;21329;-70
2024/01/04 04:49:03;;;;;;;0.68;0.25;;;;;;;4.14;98.98;99811.41;7392785;19;19933;-71
2024/01/04 04:51:34;;;;;;;2.35;0.85;;;;;;;4.13;98.70;99804.41;7396647;19;19958;-71
2024/01/04 04:54:03;;;;;;;1.00;0.30;;;;;;;4.14;98.33;99810.56;7397109;19;19923;-71
2024/01/04 04:56:32;;;;;;;1.48;0.30;;;;;;;4.14;98.07;99827.41;7394516;19;19918;-71
2024/01/04 04:59:02;;;;;;;1.95;0.20;;;;;;;4.13;97.98;99825.72;7397130;19;19922;-71
2024/01/04 05:01:30;;;;;;;1.85;0.28;;;;;;;4.14;98.42;99832.72;7388628;19;19922;-71
2024/01/04 05:03:59;;;;;;;1.63;0.30;;;;;;;4.14;98.70;99832.72;7397755;19;19926;-71
2024/01/04 05:06:28;;;;;;;1.35;0.75;;;;;;;4.12;98.47;99840.03;7392726;19;19946;-71
2024/01/04 05:08:59;;;;;;;1.02;0.22;;;;;;;4.13;98.86;99851.53;7395590;19;20406;-71
2024/01/04 05:11:27;;;;;;;2.25;0.30;;;;;;;4.10;99.12;99852.69;7392795;19;20363;-71
2024/01/04 05:13:56;;;;;;;4.07;0.47;;;;;;;4.10;99.37;99861.50;7393033;19;19922;-72
2024/01/04 05:16:24;;;;;;;1.02;0.35;;;;;;;4.10;99.36;99855.34;7390386;19;19950;-70
2024/01/04 05:18:53;;;;;;;0.47;0.15;;;;;;;4.09;99.49;99864.34;7394489;19;19937;-69
2024/01/04 05:21:21;;;;;;;0.95;0.30;;;;;;;4.10;99.00;99868.66;7394600;19;19926;-69
2024/01/04 05:23:50;;;;;;;1.35;0.20;;;;;;;4.11;99.02;99873.00;7393661;19;20058;-69
2024/01/04 05:26:26;;;;;;;1.00;0.30;;;;;;;4.09;98.61;99878.53;7393567;19;19977;-69
2024/01/04 05:28:54;;;;;;;2.40;0.47;;;;;;;4.11;98.43;99881.00;7394552;19;19929;-70
2024/01/04 05:31:23;;;;;;;5.85;0.45;;;;;;;4.07;98.12;99890.31;7396069;19;19929;-70
2024/01/04 05:33:52;;;;;;;0.57;0.10;;;;;;;4.03;98.27;99894.28;7386147;19;19941;-70
2024/01/04 05:36:20;;;;;;;0.30;0.20;;;;;;;3.99;98.38;99899.13;7392230;19;19926;-70
2024/01/04 05:38:49;;;;;;;2.92;0.28;;;;;;;4.00;98.01;99919.44;7395126;19;20254;-71
2024/01/04 05:41:18;;;;;;;1.92;0.30;;;;;;;4.01;98.04;99915.75;7393601;19;19919;-71
2024/01/04 05:43:49;;;;;;;0.80;0.10;;;;;;;3.97;97.30;99925.06;7393479;19;19929;-71
2024/01/04 05:46:18;;;;;;;3.63;0.20;;;;;;;3.97;98.04;99921.59;7394735;19;19938;-71
2024/01/04 05:48:47;;;;;;;3.13;0.47;;;;;;;3.93;98.91;99925.53;7394972;19;19963;-70
2024/01/04 05:51:16;;;;;;;4.43;0.70;;;;;;;3.90;99.50;99937.34;7388772;19;19926;-71
2024/01/04 05:53:45;;;;;;;1.02;0.63;;;;;;;3.87;99.81;99934.19;7389526;19;19959;-71
2024/01/04 05:56:13;;;;;;;1.35;0.30;;;;;;;3.85;99.68;99949.47;7395604;19;20384;-71
2024/01/04 05:58:42;;;;;;;0.50;0.20;;;;;;;3.82;99.74;99944.47;7394281;19;20631;-71
2024/01/04 06:01:14;;;;;;;1.20;0.35;;;;;;;3.83;99.94;99952.31;7395963;19;19937;-70
2024/01/04 06:03:42;;;;;;;2.30;0.40;;;;;;;3.82;99.79;99960.44;7395185;19;19942;-70
2024/01/04 06:06:11;;;;;;;1.02;0.30;;;;;;;3.79;99.75;99963.44;7391654;19;19925;-70
2024/01/04 06:08:39;;;;;;;1.98;0.30;;;;;;;3.81;99.89;99969.44;7395759;19;19926;-70
2024/01/04 06:11:08;;;;;;;1.65;0.28;;;;;;;3.80;100.00;99968.59;7386853;19;19933;-71
2024/01/04 06:13:37;;;;;;;2.03;0.40;;;;;;;3.80;100.00;99978.41;7391533;19;19938;-71
2024/01/04 06:16:07;;;;;;;1.48;0.25;;;;;;;3.82;100.00;99982.59;7394338;19;19937;-71
2024/01/04 06:18:39;;;;;;;1.58;0.30;;;;;;;3.79;100.00;99976.75;7393713;19;19919;-71
2024/01/04 06:21:08;;;;;;;1.98;0.30;;;;;;;3.76;100.00;99991.19;7394452;19;20478;-71
2024/01/04 06:23:36;;;;;;;0.75;0.22;;;;;;;3.74;99.72;99992.34;7393474;19;19934;-71
2024/01/04 06:26:05;;;;;;;1.35;0.30;;;;;;;3.72;99.13;100004.97;7395181;19;19919;-71
2024/01/04 06:28:36;;;;;;;0.90;0.30;;;;;;;3.72;98.96;100010.31;7392860;19;19934;-71
2024/01/04 06:31:05;;;;;;;2.22;0.30;;;;;;;3.67;98.60;100016.09;7385513;19;20025;-71
2024/01/04 06:33:34;;;;;;;0.60;0.10;;;;;;;3.65;98.34;100018.94;7392147;19;19930;-71
2024/01/04 06:36:05;;;;;;;0.35;0.10;;;;;;;3.64;98.32;100030.56;7391483;19;20249;-71
2024/01/04 06:38:35;;;;;;;2.15;0.38;;;;;;;3.67;98.67;100031.25;7392717;19;19934;-70
2024/01/04 06:41:04;;;;;;;1.08;0.35;;;;;;;3.67;98.14;100032.06;7392516;19;19922;-71
2024/01/04 06:43:32;;;;;;;1.95;0.35;;;;;;;3.69;98.01;100040.75;7392708;19;19919;-71
2024/01/04 06:46:01;;;;;;;1.50;0.20;;;;;;;3.67;97.63;100053.38;7392190;19;19970;-71
2024/01/04 06:48:30;;;;;;;0.75;0.40;;;;;;;3.67;97.37;100052.56;7393762;19;19919;-71
2024/01/04 06:50:58;;;;;;;1.13;0.13;;;;;;;3.63;97.15;100052.84;7392869;19;20484;-71
2024/01/04 06:53:29;;;;;;;1.50;0.40;;;;;;;3.62;96.96;100055.69;7392609;19;19941;-71
2024/01/04 06:55:58;;;;;;;2.10;0.77;;;;;;;3.60;96.73;100061.16;7392533;19;20505;-71
2024/01/04 06:58:27;;;;;;;4.05;0.50;;;;;;;3.61;97.19;100076.16;7389687;19;19919;-71
2024/01/04 07:00:56;;;;;;;1.17;0.50;;;;;;;3.59;96.85;100066.63;7392388;19;20276;-71
2024/01/04 07:03:25;;;;;;;2.17;0.30;;;;;;;3.57;97.01;100084.59;7391849;19;19950;-71
2024/01/04 07:05:53;;;;;;;0.63;0.30;;;;;;;3.53;97.08;100089.41;7392710;19;19923;-70
2024/01/04 07:08:22;;;;;;;2.67;0.50;;;;;;;3.54;97.44;100091.03;7389636;19;19923;-71
2024/01/04 07:10:53;;;;;;;0.65;0.30;;;;;;;3.54;96.73;100091.03;7394301;19;20383;-71
2024/01/04 07:13:25;;;;;;;2.58;0.38;;;;;;;3.50;96.50;100095.00;7399223;19;19918;-70
2024/01/04 07:15:54;;;;;;;1.85;0.30;;;;;;;3.51;96.68;100102.00;7395608;19;19941;-71
2024/01/04 07:18:23;;;;;;;1.60;0.28;;;;;;;3.48;96.75;100102.31;7398947;19;19922;-70
2024/01/04 07:20:51;;;;;;;0.80;0.38;;;;;;;3.45;96.75;100107.91;7398532;19;19919;-70
2024/01/04 07:23:40;;;;;;;1.08;0.28;;;;;;;3.44;96.71;100113.41;7398401;19;19999;-70
2024/01/04 07:26:12;;;;;;;1.75;0.40;;;;;;;3.44;96.65;100132.91;7392489;19;19929;-70
2024/01/04 07:29:00;;;;;;;1.38;0.63;;;;;;;3.46;96.92;100140.72;7395585;19;20370;-71
2024/01/04 07:31:29;;;;;;;0.68;0.38;;;;;;;3.48;97.50;100144.06;7398929;19;19918;-70
2024/01/04 07:33:57;;;;;;;3.13;0.40;;;;;;;3.49;97.65;100143.94;7384531;19;19956;-71
2024/01/04 07:36:26;;;;;;;1.60;0.40;;;;;;;3.49;97.63;100154.59;7385569;19;19926;-72
2024/01/04 07:38:55;;;;;;;2.50;0.85;;;;;;;3.50;98.18;100156.25;7389651;19;19929;-71
2024/01/04 07:41:26;;;;;;;2.03;0.57;;;;;;;3.50;98.79;100161.56;7396831;19;19948;-70
2024/01/04 07:43:54;;;;;;;2.97;1.00;;;;;;;3.50;98.65;100161.56;7389607;19;19949;-71
2024/01/04 07:46:23;;;;;;;0.98;0.30;;;;;;;3.52;98.72;100169.41;7395207;19;20022;-71
2024/01/04 07:48:51;;;;;;;3.47;0.47;;;;;;;3.53;98.96;100173.75;7396543;19;19926;-71
2024/01/04 07:51:20;;;;;;;2.80;0.30;;;;;;;3.56;98.94;100186.78;7397277;19;20369;-71
2024/01/04 07:53:48;;;;;;;1.50;0.50;;;;;;;3.58;98.45;100182.16;7398786;19;19927;-71
2024/01/04 07:56:40;;;;;;;2.47;0.47;;;;;;;3.60;98.48;100186.31;7394151;19;19922;-71
2024/01/04 07:59:10;;;;;;;1.40;0.52;;;;;;;3.61;99.08;100185.34;7398432;19;19951;-71
2024/01/04 08:01:39;;;;;;;1.60;0.50;;;;;;;3.60;99.39;100183.66;7386835;19;20204;-71
2024/01/04 08:04:08;;;;;;;1.67;0.50;;;;;;;3.60;99.70;100189.00;7397712;19;19919;-71
2024/01/04 08:06:36;;;;;;;0.77;0.30;;;;;;;3.60;99.82;100185.47;7393905;19;19933;-71
2024/01/04 08:09:06;;;;;;;0.52;0.30;;;;;;;3.58;99.91;100195.47;7399154;19;19918;-71
2024/01/04 08:11:35;;;;;;;3.78;1.02;;;;;;;3.57;100.00;100205.28;7396660;19;19990;-71
2024/01/04 08:14:06;;;;;;;4.65;1.52;;;;;;;3.56;100.00;100205.41;7397319;19;19915;-71
2024/01/04 08:16:35;;;;;;;0.80;0.43;;;;;;;3.55;99.80;100211.72;7388253;19;19918;-71
2024/01/04 08:19:04;;;;;;;4.00;0.63;;;;;;;3.52;99.27;100210.19;7392750;19;19929;-71
2024/01/04 08:21:33;;;;;;;1.40;0.50;;;;;;;3.54;99.41;100208.22;7395923;19;19986;-70
2024/01/04 08:24:03;;;;;;;2.55;0.65;;;;;;;3.58;100.00;100224.75;7388947;19;20311;-70
2024/01/04 08:26:31;;;;;;;2.17;0.98;;;;;;;3.60;100.00;100223.59;7393787;19;19918;-70
2024/01/04 08:29:00;;;;;;;2.13;0.50;;;;;;;3.62;99.29;100223.47;7394773;19;19930;-70
2024/01/04 08:31:32;;;;;;;1.85;0.70;;;;;;;3.63;99.25;100233.97;7397106;19;20308;-71
2024/01/04 08:34:01;;;;;;;4.32;0.80;;;;;;;3.67;99.94;100235.34;7397725;19;19927;-70
2024/01/04 08:36:30;;;;;;;2.30;0.40;;;;;;;3.70;99.70;100239.53;7394204;19;19947;-70
2024/01/04 08:38:58;;;;;;;2.10;0.25;;;;;;;3.72;100.00;100236.72;7376180;19;19937;-72
2024/01/04 08:41:28;;;;;;;1.30;0.30;;;;;;;3.73;99.99;100243.72;7394926;19;20269;-71
2024/01/04 08:43:56;;;;;;;0.82;0.30;;;;;;;3.74;100.00;100248.91;7395597;19;19923;-71
2024/01/04 08:46:25;;;;;;;1.95;0.40;;;;;;;3.77;100.00;100251.28;7396869;19;19961;-72
2024/01/04 08:48:56;;;;;;;10.68;3.35;;;;;;;3.79;100.00;100254.63;7394021;19;19922;-71
2024/01/04 08:51:26;;;;;;;6.05;2.17;;;;;;;3.82;100.00;100257.00;7397344;19;19949;-71
2024/01/04 08:53:56;;;;;;;4.43;1.88;;;;;;;3.89;100.00;100262.56;7395209;19;19918;-71
2024/01/04 08:56:24;;;;;;;1.85;0.30;;;;;;;3.93;100.00;100272.75;7393571;19;19923;-71
2024/01/04 08:58:53;;;;;;;0.85;0.35;;;;;;;3.94;99.37;100270.94;7397377;19;19953;-71
2024/01/04 09:01:21;;;;;;;1.13;0.45;;;;;;;3.89;99.08;100275.88;7385471;19;19965;-68
2024/01/04 09:03:52;;;;;;;1.60;0.75;;;;;;;3.87;99.36;100273.38;7391898;19;19934;-79
2024/01/04 09:06:23;;;;;;;2.38;0.40;;;;;;;3.90;100.00;100273.06;7388094;19;20300;-77
2024/01/04 09:08:52;;;;;;;2.15;1.00;;;;;;;3.92;100.00;100280.94;7393583;19;19926;-75
2024/01/04 09:11:20;;;;;;;0.85;0.32;;;;;;;3.96;99.93;100290.31;7393818;19;19929;-76
2024/01/04 09:13:49;;;;;;;1.65;0.28;;;;;;;4.02;99.92;100297.69;7396041;19;19925;-74
2024/01/04 09:16:18;;;;;;;2.13;0.70;;;;;;;4.06;100.00;100296.41;7396799;19;20015;-74
2024/01/04 09:18:46;;;;;;;2.92;0.60;;;;;;;4.10;99.84;100300.44;7394506;19;19926;-74
2024/01/04 09:21:15;;;;;;;1.08;0.30;;;;;;;4.13;99.82;100309.97;7392832;19;19922;-73
2024/01/04 09:23:46;;;;;;;1.23;0.70;;;;;;;4.13;99.91;100316.16;7394408;19;19927;-73
2024/01/04 09:26:15;;;;;;;1.55;0.50;;;;;;;4.15;99.84;100324.81;7394555;19;20364;-74
2024/01/04 09:28:43;;;;;;;1.92;0.77;;;;;;;4.19;99.73;100322.69;7396029;19;19922;-74
2024/01/04 09:31:12;;;;;;;2.30;0.50;;;;;;;4.23;99.39;100322.25;7394131;19;19925;-70
2024/01/04 09:33:40;;;;;;;1.27;0.80;;;;;;;4.35;99.22;100330.91;7392516;19;20995;-80
2024/01/04 09:36:09;;;;;;;1.55;0.77;;;;;;;4.45;99.26;100334.31;7397135;19;19919;-74
2024/01/04 09:38:38;;;;;;;2.40;0.45;;;;;;;4.54;99.34;100336.06;7395884;19;19926;-70
2024/01/04 09:41:24;;;;;;;1.02;0.30;;;;;;;4.61;98.77;100344.31;7396476;19;19918;-80
2024/01/04 09:43:57;;;;;;;3.60;0.28;;;;;;;4.62;97.92;100341.50;7393367;19;20081;-73
2024/01/04 09:46:27;;;;;;;1.67;0.45;;;;;;;4.60;97.73;100350.66;7394459;19;19970;-73
2024/01/04 09:49:00;;;;;;;2.40;0.47;;;;;;;4.62;98.17;100351.34;7394208;19;19926;-79
2024/01/04 09:51:30;;;;;;;1.58;0.57;;;;;;;4.64;97.57;100363.53;7395197;19;19943;-78
2024/01/04 09:53:59;;;;;;;0.93;0.65;;;;;;;4.66;97.66;100363.41;7391139;19;19934;-76
2024/01/04 09:56:32;;;;;;;1.95;0.60;;;;;;;4.67;97.47;100367.72;7388361;19;20721;-74
2024/01/04 09:59:01;;;;;;;1.75;0.43;;;;;;;4.68;97.75;100374.72;7392995;19;19926;-71
2024/01/04 10:01:33;;;;;;;0.60;0.30;;;;;;;4.70;97.97;100378.94;7392015;19;20272;-73
2024/01/04 10:04:07;;;;;;;1.80;0.60;;;;;;;4.72;98.39;100386.78;7393975;19;19922;-72
2024/01/04 10:06:38;;;;;;;0.93;0.47;;;;;;;4.72;98.10;100390.28;7391636;19;19919;-71
2024/01/04 10:09:17;;;;;;;1.55;0.47;;;;;;;4.70;97.81;100391.44;7386786;19;19950;-71
2024/01/04 10:12:02;;;;;;;0.65;0.60;;;;;;;4.62;97.61;100388.69;7393778;19;19919;-79
2024/01/04 10:14:51;;;;;;;3.35;0.85;;;;;;;4.51;97.15;100389.72;7388341;19;19922;-74
2024/01/04 10:17:19;;;;;;;3.15;1.73;;;;;;;4.42;97.43;100380.81;7387653;19;19922;-79
2024/01/04 10:19:48;;;;;;;6.32;2.10;;;;;;;4.32;98.22;100390.66;7395354;19;19918;-78
2024/01/04 10:22:17;;;;;;;5.80;2.00;;;;;;;4.26;98.46;100395.78;7392788;19;19942;-77
2024/01/04 10:24:47;;;;;;;3.30;1.65;;;;;;;4.22;98.67;100402.38;7392250;19;20328;-79
2024/01/04 10:27:18;;;;;;;1.75;0.90;;;;;;;4.22;98.72;100400.56;7388661;19;19926;-79
2024/01/04 10:29:51;;;;;;;2.42;1.10;;;;;;;4.23;99.23;100401.41;7388363;19;20341;-79
2024/01/04 10:32:20;;;;;;;1.05;0.85;;;;;;;4.24;98.57;100403.91;7392856;19;19926;-80
2024/01/04 10:34:48;;;;;;;2.88;0.55;;;;;;;4.26;99.11;100396.63;7392497;19;19998;-79
2024/01/04 10:37:22;;;;;;;5.75;0.70;;;;;;;4.30;99.14;100410.50;7390939;19;20028;-80
2024/01/04 10:40:01;;;;;;;1.75;0.90;;;;;;;4.31;98.73;100406.84;7390844;19;19923;-79
2024/01/04 10:42:32;;;;;;;1.88;0.80;;;;;;;4.33;98.54;100408.34;7393160;19;20329;-80
2024/01/04 10:45:01;;;;;;;2.28;0.68;;;;;;;4.36;98.52;100407.22;7394178;19;19927;-79
2024/01/04 10:47:31;;;;;;;2.80;1.00;;;;;;;4.37;97.10;100409.75;7395202;19;20637;-79
2024/01/04 10:50:03;;;;;;;0.73;0.30;;;;;;;4.42;97.63;100411.97;7396711;19;20644;-80
2024/01/04 10:52:33;;;;;;;1.05;0.20;;;;;;;4.47;96.76;100417.69;7394170;19;22126;-80
2024/01/04 10:55:05;;;;;;;4.68;0.50;;;;;;;4.58;97.23;100417.47;7398374;19;19918;-80
2024/01/04 10:57:37;;;;;;;2.58;0.73;;;;;;;4.67;96.97;100416.56;7396640;19;20336;-80
2024/01/04 11:00:08;;;;;;;0.77;0.40;;;;;;;4.84;97.08;100425.59;7397227;19;19927;-80
2024/01/04 11:02:38;;;;;;;3.58;1.13;;;;;;;5.02;96.40;100429.13;7396752;19;19918;-80
2024/01/04 11:05:29;;;;;;;4.18;1.13;;;;;;;5.29;95.73;100414.84;7399573;19;19923;-80
2024/01/04 11:07:58;;;;;;;2.88;0.52;;;;;;;5.38;92.66;100417.44;7395658;19;19933;-80
2024/01/04 11:10:29;;;;;;;1.70;0.55;;;;;;;5.30;92.84;100420.03;7388743;19;20373;-78
2024/01/04 11:13:02;;;;;;;1.77;0.65;;;;;;;5.21;93.74;100434.31;7389798;19;20364;-80
2024/01/04 11:15:31;;;;;;;2.70;1.48;;;;;;;5.37;92.56;100423.75;7393450;19;19939;-79
2024/01/04 11:18:22;;;;;;;3.22;0.80;;;;;;;5.44;93.01;100410.63;7401461;19;19943;-79
2024/01/04 11:21:29;;;;;;;5.35;0.85;;;;;;;5.53;92.94;100424.88;7392651;19;19922;-79
2024/01/04 11:24:05;;;;;;;3.55;1.10;;;;;;;5.53;92.49;100419.53;7395257;19;19930;-79
2024/01/04 11:26:44;;;;;;;1.60;1.50;;;;;;;5.46;91.35;100425.50;7394628;19;19951;-79
2024/01/04 11:29:15;;;;;;;4.70;1.00;;;;;;;5.48;92.01;100439.53;7394689;19;20288;-79
2024/01/04 11:31:45;;;;;;;2.53;1.10;;;;;;;5.42;91.41;100437.50;7386484;19;19922;-79
2024/01/04 11:34:34;;;;;;;3.05;1.30;;;;;;;5.37;91.06;100436.28;7397074;19;19926;-81
2024/01/04 11:37:13;;;;;;;2.10;1.30;;;;;;;5.26;91.30;100441.88;7394943;19;19943;-80
2024/01/04 11:39:58;;;;;;;2.97;0.50;;;;;;;5.19;92.25;100446.97;7393687;19;20250;-80
2024/01/04 11:42:37;;;;;;;2.45;0.77;;;;;;;5.13;92.50;100442.25;7395172;19;19919;-79
2024/01/04 11:45:17;;;;;;;4.20;1.58;;;;;;;5.08;93.12;100447.22;7394771;19;19926;-78
2024/01/04 11:47:47;;;;;;;1.95;0.45;;;;;;;5.04;92.64;100453.84;7388780;19;19919;-79
2024/01/04 11:50:17;;;;;;;4.18;0.63;;;;;;;5.03;93.22;100454.84;7394864;19;19923;-78
2024/01/04 11:52:46;;;;;;;4.10;2.33;;;;;;;5.06;93.84;100451.84;7391653;19;19922;-80